sensor_id;sensor_type;location;lat;lon;timestamp;P1;durP1;ratioP1;P2;durP2;ratioP2
19521;SDS011;9905;52.126;5.596;2022-10-29T00:00:55;6.78;;;6.13;;
19521;SDS011;9905;52.126;5.596;2022-10-29T00:03:24;6.70;;;6.20;;
19521;SDS011;9905;52.126;5.596;2022-10-29T00:05:57;8.73;;;6.30;;
19521;SDS011;9905;52.126;5.596;2022-10-29T00:08:25;6.72;;;6.10;;
19521;SDS011;9905;52.126;5.596;2022-10-29T00:10:53;7.45;;;6.82;;
19521;SDS011;9905;52.126;5.596;2022-10-29T00:13:19;9.55;;;6.78;;
19521;SDS011;9905;52.126;5.596;2022-10-29T00:15:46;7.43;;;6.88;;
19521;SDS011;9905;52.126;5.596;2022-10-29T00:18:13;8.25;;;6.93;;
19521;SDS011;9905;52.126;5.596;2022-10-29T00:20:41;9.55;;;7.13;;
19521;SDS011;9905;52.126;5.596;2022-10-29T00:23:08;8.35;;;7.65;;
19521;SDS011;9905;52.126;5.596;2022-10-29T00:25:34;8.10;;;7.30;;
19521;SDS011;9905;52.126;5.596;2022-10-29T00:28:01;8.10;;;7.47;;
19521;SDS011;9905;52.126;5.596;2022-10-29T00:30:28;9.25;;;7.53;;
19521;SDS011;9905;52.126;5.596;2022-10-29T00:32:54;13.18;;;7.50;;
19521;SDS011;9905;52.126;5.596;2022-10-29T00:35:21;9.32;;;8.60;;
19521;SDS011;9905;52.126;5.596;2022-10-29T00:37:49;11.32;;;7.13;;
19521;SDS011;9905;52.126;5.596;2022-10-29T00:40:16;7.65;;;7.03;;
19521;SDS011;9905;52.126;5.596;2022-10-29T00:42:43;7.72;;;7.18;;
19521;SDS011;9905;52.126;5.596;2022-10-29T00:45:13;7.57;;;6.68;;
19521;SDS011;9905;52.126;5.596;2022-10-29T00:47:44;7.50;;;7.10;;
19521;SDS011;9905;52.126;5.596;2022-10-29T00:50:15;10.93;;;7.20;;
19521;SDS011;9905;52.126;5.596;2022-10-29T00:52:42;8.38;;;7.68;;
19521;SDS011;9905;52.126;5.596;2022-10-29T00:55:13;8.40;;;7.68;;
19521;SDS011;9905;52.126;5.596;2022-10-29T00:57:42;10.93;;;7.97;;
19521;SDS011;9905;52.126;5.596;2022-10-29T01:00:14;7.75;;;7.30;;
19521;SDS011;9905;52.126;5.596;2022-10-29T01:02:42;8.35;;;7.55;;
19521;SDS011;9905;52.126;5.596;2022-10-29T01:05:09;8.50;;;7.60;;
19521;SDS011;9905;52.126;5.596;2022-10-29T01:07:38;8.88;;;8.00;;
19521;SDS011;9905;52.126;5.596;2022-10-29T01:10:05;9.30;;;8.00;;
19521;SDS011;9905;52.126;5.596;2022-10-29T01:12:39;8.30;;;7.55;;
19521;SDS011;9905;52.126;5.596;2022-10-29T01:15:21;7.95;;;7.28;;
19521;SDS011;9905;52.126;5.596;2022-10-29T01:17:58;10.18;;;7.00;;
19521;SDS011;9905;52.126;5.596;2022-10-29T01:26:44;7.90;;;7.22;;
19521;SDS011;9905;52.126;5.596;2022-10-29T01:29:34;8.30;;;7.50;;
19521;SDS011;9905;52.126;5.596;2022-10-29T01:32:16;8.45;;;7.65;;
19521;SDS011;9905;52.126;5.596;2022-10-29T01:34:50;8.80;;;8.13;;
19521;SDS011;9905;52.126;5.596;2022-10-29T01:37:23;9.10;;;7.95;;
19521;SDS011;9905;52.126;5.596;2022-10-29T01:39:55;7.95;;;7.53;;
19521;SDS011;9905;52.126;5.596;2022-10-29T01:42:29;7.10;;;6.80;;
19521;SDS011;9905;52.126;5.596;2022-10-29T01:45:03;8.93;;;8.13;;
19521;SDS011;9905;52.126;5.596;2022-10-29T01:47:39;7.28;;;6.88;;
19521;SDS011;9905;52.126;5.596;2022-10-29T01:50:09;7.70;;;7.00;;
19521;SDS011;9905;52.126;5.596;2022-10-29T01:52:40;7.15;;;6.75;;
19521;SDS011;9905;52.126;5.596;2022-10-29T01:55:08;8.05;;;7.35;;
19521;SDS011;9905;52.126;5.596;2022-10-29T01:57:35;7.75;;;7.20;;
19521;SDS011;9905;52.126;5.596;2022-10-29T02:00:04;8.32;;;7.72;;
19521;SDS011;9905;52.126;5.596;2022-10-29T02:02:36;9.25;;;8.43;;
19521;SDS011;9905;52.126;5.596;2022-10-29T02:05:13;8.75;;;8.13;;
19521;SDS011;9905;52.126;5.596;2022-10-29T02:07:49;9.05;;;8.15;;
19521;SDS011;9905;52.126;5.596;2022-10-29T02:10:21;11.02;;;8.70;;
19521;SDS011;9905;52.126;5.596;2022-10-29T02:12:53;9.32;;;8.55;;
19521;SDS011;9905;52.126;5.596;2022-10-29T02:15:22;10.05;;;9.25;;
19521;SDS011;9905;52.126;5.596;2022-10-29T02:17:56;11.02;;;9.95;;
19521;SDS011;9905;52.126;5.596;2022-10-29T02:20:24;12.20;;;9.45;;
19521;SDS011;9905;52.126;5.596;2022-10-29T02:22:51;10.93;;;9.98;;
19521;SDS011;9905;52.126;5.596;2022-10-29T02:25:18;9.88;;;9.27;;
19521;SDS011;9905;52.126;5.596;2022-10-29T02:27:45;11.25;;;10.25;;
19521;SDS011;9905;52.126;5.596;2022-10-29T02:30:11;10.75;;;10.13;;
19521;SDS011;9905;52.126;5.596;2022-10-29T02:32:38;10.48;;;9.57;;
19521;SDS011;9905;52.126;5.596;2022-10-29T02:35:07;11.00;;;10.20;;
19521;SDS011;9905;52.126;5.596;2022-10-29T02:37:34;10.10;;;9.35;;
19521;SDS011;9905;52.126;5.596;2022-10-29T02:40:01;11.30;;;10.30;;
19521;SDS011;9905;52.126;5.596;2022-10-29T02:42:28;12.60;;;10.55;;
19521;SDS011;9905;52.126;5.596;2022-10-29T02:44:56;11.02;;;10.15;;
19521;SDS011;9905;52.126;5.596;2022-10-29T02:47:23;9.27;;;8.77;;
19521;SDS011;9905;52.126;5.596;2022-10-29T02:49:49;10.68;;;9.73;;
19521;SDS011;9905;52.126;5.596;2022-10-29T02:52:18;10.50;;;9.40;;
19521;SDS011;9905;52.126;5.596;2022-10-29T02:54:44;9.63;;;8.93;;
19521;SDS011;9905;52.126;5.596;2022-10-29T02:57:11;8.63;;;8.13;;
19521;SDS011;9905;52.126;5.596;2022-10-29T02:59:38;9.02;;;8.43;;
19521;SDS011;9905;52.126;5.596;2022-10-29T03:02:04;9.27;;;8.65;;
19521;SDS011;9905;52.126;5.596;2022-10-29T03:04:31;9.43;;;8.82;;
19521;SDS011;9905;52.126;5.596;2022-10-29T03:06:58;9.73;;;9.20;;
19521;SDS011;9905;52.126;5.596;2022-10-29T03:09:26;10.32;;;9.68;;
19521;SDS011;9905;52.126;5.596;2022-10-29T03:11:53;9.20;;;8.30;;
19521;SDS011;9905;52.126;5.596;2022-10-29T03:14:19;9.05;;;8.27;;
19521;SDS011;9905;52.126;5.596;2022-10-29T03:16:46;10.02;;;9.23;;
19521;SDS011;9905;52.126;5.596;2022-10-29T03:19:13;8.35;;;7.88;;
19521;SDS011;9905;52.126;5.596;2022-10-29T03:21:39;9.40;;;8.70;;
19521;SDS011;9905;52.126;5.596;2022-10-29T03:24:06;9.00;;;8.50;;
19521;SDS011;9905;52.126;5.596;2022-10-29T03:26:34;9.57;;;8.77;;
19521;SDS011;9905;52.126;5.596;2022-10-29T03:29:01;9.45;;;8.63;;
19521;SDS011;9905;52.126;5.596;2022-10-29T03:31:28;8.80;;;8.20;;
19521;SDS011;9905;52.126;5.596;2022-10-29T03:33:54;8.75;;;8.25;;
19521;SDS011;9905;52.126;5.596;2022-10-29T03:36:21;8.25;;;7.75;;
19521;SDS011;9905;52.126;5.596;2022-10-29T03:38:48;8.05;;;7.55;;
19521;SDS011;9905;52.126;5.596;2022-10-29T03:41:15;8.38;;;7.72;;
19521;SDS011;9905;52.126;5.596;2022-10-29T03:43:43;8.50;;;8.10;;
19521;SDS011;9905;52.126;5.596;2022-10-29T03:46:09;8.88;;;8.18;;
19521;SDS011;9905;52.126;5.596;2022-10-29T03:48:36;9.52;;;8.60;;
19521;SDS011;9905;52.126;5.596;2022-10-29T03:51:03;9.05;;;8.27;;
19521;SDS011;9905;52.126;5.596;2022-10-29T03:53:31;9.55;;;8.85;;
19521;SDS011;9905;52.126;5.596;2022-10-29T03:55:59;9.38;;;8.75;;
19521;SDS011;9905;52.126;5.596;2022-10-29T03:58:25;9.77;;;8.52;;
19521;SDS011;9905;52.126;5.596;2022-10-29T04:00:54;9.45;;;8.75;;
19521;SDS011;9905;52.126;5.596;2022-10-29T04:03:22;9.30;;;8.60;;
19521;SDS011;9905;52.126;5.596;2022-10-29T04:05:49;10.27;;;9.38;;
19521;SDS011;9905;52.126;5.596;2022-10-29T04:08:16;11.00;;;9.63;;
19521;SDS011;9905;52.126;5.596;2022-10-29T04:10:43;13.38;;;9.55;;
19521;SDS011;9905;52.126;5.596;2022-10-29T04:13:11;10.00;;;9.18;;
19521;SDS011;9905;52.126;5.596;2022-10-29T04:15:38;10.57;;;9.88;;
19521;SDS011;9905;52.126;5.596;2022-10-29T04:18:06;10.57;;;9.98;;
19521;SDS011;9905;52.126;5.596;2022-10-29T04:20:34;10.35;;;9.63;;
19521;SDS011;9905;52.126;5.596;2022-10-29T04:23:01;10.65;;;10.00;;
19521;SDS011;9905;52.126;5.596;2022-10-29T04:25:29;11.07;;;10.38;;
19521;SDS011;9905;52.126;5.596;2022-10-29T04:27:56;10.80;;;10.05;;
19521;SDS011;9905;52.126;5.596;2022-10-29T04:30:23;12.00;;;11.35;;
19521;SDS011;9905;52.126;5.596;2022-10-29T04:32:50;12.02;;;11.20;;
19521;SDS011;9905;52.126;5.596;2022-10-29T04:35:23;11.65;;;10.95;;
19521;SDS011;9905;52.126;5.596;2022-10-29T04:37:49;11.57;;;10.77;;
19521;SDS011;9905;52.126;5.596;2022-10-29T04:40:19;12.20;;;11.32;;
19521;SDS011;9905;52.126;5.596;2022-10-29T04:42:46;10.98;;;10.27;;
19521;SDS011;9905;52.126;5.596;2022-10-29T04:45:13;11.43;;;10.80;;
19521;SDS011;9905;52.126;5.596;2022-10-29T04:47:40;10.95;;;10.38;;
19521;SDS011;9905;52.126;5.596;2022-10-29T04:50:06;11.63;;;11.02;;
19521;SDS011;9905;52.126;5.596;2022-10-29T04:52:35;11.38;;;10.70;;
19521;SDS011;9905;52.126;5.596;2022-10-29T04:55:02;12.10;;;11.40;;
19521;SDS011;9905;52.126;5.596;2022-10-29T04:57:29;11.65;;;10.95;;
19521;SDS011;9905;52.126;5.596;2022-10-29T04:59:56;11.98;;;11.20;;
19521;SDS011;9905;52.126;5.596;2022-10-29T05:02:22;11.45;;;10.65;;
19521;SDS011;9905;52.126;5.596;2022-10-29T05:04:49;10.63;;;10.13;;
19521;SDS011;9905;52.126;5.596;2022-10-29T05:07:16;10.55;;;9.90;;
19521;SDS011;9905;52.126;5.596;2022-10-29T05:09:44;11.05;;;10.27;;
19521;SDS011;9905;52.126;5.596;2022-10-29T05:12:10;11.65;;;10.95;;
19521;SDS011;9905;52.126;5.596;2022-10-29T05:14:37;11.38;;;10.70;;
19521;SDS011;9905;52.126;5.596;2022-10-29T05:17:04;11.50;;;10.80;;
19521;SDS011;9905;52.126;5.596;2022-10-29T05:19:30;10.68;;;10.10;;
19521;SDS011;9905;52.126;5.596;2022-10-29T05:21:57;10.57;;;10.07;;
19521;SDS011;9905;52.126;5.596;2022-10-29T05:24:24;11.30;;;10.55;;
19521;SDS011;9905;52.126;5.596;2022-10-29T05:26:52;11.18;;;10.48;;
19521;SDS011;9905;52.126;5.596;2022-10-29T05:29:18;11.82;;;11.07;;
19521;SDS011;9905;52.126;5.596;2022-10-29T05:31:45;11.70;;;10.88;;
19521;SDS011;9905;52.126;5.596;2022-10-29T05:34:12;11.38;;;10.68;;
19521;SDS011;9905;52.126;5.596;2022-10-29T05:36:39;11.93;;;11.23;;
19521;SDS011;9905;52.126;5.596;2022-10-29T05:39:05;12.13;;;11.32;;
19521;SDS011;9905;52.126;5.596;2022-10-29T05:41:32;11.73;;;11.02;;
19521;SDS011;9905;52.126;5.596;2022-10-29T05:44:00;12.35;;;11.57;;
19521;SDS011;9905;52.126;5.596;2022-10-29T05:46:27;12.05;;;11.25;;
19521;SDS011;9905;52.126;5.596;2022-10-29T05:48:53;12.18;;;11.48;;
19521;SDS011;9905;52.126;5.596;2022-10-29T05:51:20;12.13;;;11.35;;
19521;SDS011;9905;52.126;5.596;2022-10-29T05:53:47;12.38;;;11.68;;
19521;SDS011;9905;52.126;5.596;2022-10-29T05:56:14;12.38;;;11.45;;
19521;SDS011;9905;52.126;5.596;2022-10-29T05:58:41;13.93;;;12.75;;
19521;SDS011;9905;52.126;5.596;2022-10-29T06:01:09;12.75;;;11.85;;
19521;SDS011;9905;52.126;5.596;2022-10-29T06:03:36;14.38;;;13.27;;
19521;SDS011;9905;52.126;5.596;2022-10-29T06:06:03;14.20;;;13.30;;
19521;SDS011;9905;52.126;5.596;2022-10-29T06:08:30;14.35;;;13.07;;
19521;SDS011;9905;52.126;5.596;2022-10-29T06:10:59;14.77;;;13.63;;
19521;SDS011;9905;52.126;5.596;2022-10-29T06:13:26;14.73;;;13.52;;
19521;SDS011;9905;52.126;5.596;2022-10-29T06:15:55;15.30;;;14.13;;
19521;SDS011;9905;52.126;5.596;2022-10-29T06:18:24;15.82;;;14.40;;
19521;SDS011;9905;52.126;5.596;2022-10-29T06:20:51;15.77;;;14.48;;
19521;SDS011;9905;52.126;5.596;2022-10-29T06:23:18;14.80;;;13.43;;
19521;SDS011;9905;52.126;5.596;2022-10-29T06:25:45;15.32;;;14.05;;
19521;SDS011;9905;52.126;5.596;2022-10-29T06:28:12;15.23;;;14.02;;
19521;SDS011;9905;52.126;5.596;2022-10-29T06:30:44;15.05;;;13.98;;
19521;SDS011;9905;52.126;5.596;2022-10-29T06:33:11;15.75;;;14.35;;
19521;SDS011;9905;52.126;5.596;2022-10-29T06:35:40;15.75;;;14.43;;
19521;SDS011;9905;52.126;5.596;2022-10-29T06:38:06;15.13;;;13.82;;
19521;SDS011;9905;52.126;5.596;2022-10-29T06:40:33;13.85;;;12.73;;
19521;SDS011;9905;52.126;5.596;2022-10-29T06:43:00;14.77;;;13.35;;
19521;SDS011;9905;52.126;5.596;2022-10-29T06:45:28;15.40;;;14.15;;
19521;SDS011;9905;52.126;5.596;2022-10-29T06:47:55;14.73;;;13.65;;
19521;SDS011;9905;52.126;5.596;2022-10-29T06:50:22;16.17;;;14.80;;
19521;SDS011;9905;52.126;5.596;2022-10-29T06:52:55;15.38;;;13.98;;
19521;SDS011;9905;52.126;5.596;2022-10-29T06:55:22;13.85;;;12.85;;
19521;SDS011;9905;52.126;5.596;2022-10-29T06:57:54;15.35;;;13.82;;
19521;SDS011;9905;52.126;5.596;2022-10-29T07:00:25;15.02;;;13.68;;
19521;SDS011;9905;52.126;5.596;2022-10-29T07:02:52;15.48;;;14.18;;
19521;SDS011;9905;52.126;5.596;2022-10-29T07:05:19;14.07;;;13.07;;
19521;SDS011;9905;52.126;5.596;2022-10-29T07:07:46;15.02;;;13.70;;
19521;SDS011;9905;52.126;5.596;2022-10-29T07:10:14;16.23;;;14.80;;
19521;SDS011;9905;52.126;5.596;2022-10-29T07:12:41;15.23;;;14.13;;
19521;SDS011;9905;52.126;5.596;2022-10-29T07:15:09;18.27;;;15.30;;
19521;SDS011;9905;52.126;5.596;2022-10-29T07:17:37;17.05;;;15.65;;
19521;SDS011;9905;52.126;5.596;2022-10-29T07:20:04;16.55;;;15.07;;
19521;SDS011;9905;52.126;5.596;2022-10-29T07:22:32;15.80;;;14.60;;
19521;SDS011;9905;52.126;5.596;2022-10-29T07:24:59;16.67;;;14.85;;
19521;SDS011;9905;52.126;5.596;2022-10-29T07:27:27;17.55;;;15.95;;
19521;SDS011;9905;52.126;5.596;2022-10-29T07:29:54;17.38;;;15.48;;
19521;SDS011;9905;52.126;5.596;2022-10-29T07:32:22;15.85;;;14.27;;
19521;SDS011;9905;52.126;5.596;2022-10-29T07:34:49;15.30;;;14.20;;
19521;SDS011;9905;52.126;5.596;2022-10-29T07:37:16;15.93;;;14.23;;
19521;SDS011;9905;52.126;5.596;2022-10-29T07:39:42;16.52;;;15.13;;
19521;SDS011;9905;52.126;5.596;2022-10-29T07:42:09;18.63;;;16.83;;
19521;SDS011;9905;52.126;5.596;2022-10-29T07:44:37;25.33;;;22.70;;
19521;SDS011;9905;52.126;5.596;2022-10-29T07:47:04;26.10;;;23.15;;
19521;SDS011;9905;52.126;5.596;2022-10-29T07:49:30;25.02;;;22.42;;
19521;SDS011;9905;52.126;5.596;2022-10-29T07:51:57;23.38;;;20.98;;
19521;SDS011;9905;52.126;5.596;2022-10-29T07:54:24;21.95;;;19.10;;
19521;SDS011;9905;52.126;5.596;2022-10-29T07:56:50;20.48;;;17.58;;
19521;SDS011;9905;52.126;5.596;2022-10-29T07:59:18;19.50;;;17.80;;
19521;SDS011;9905;52.126;5.596;2022-10-29T08:01:46;20.45;;;18.40;;
19521;SDS011;9905;52.126;5.596;2022-10-29T08:04:12;21.45;;;19.45;;
19521;SDS011;9905;52.126;5.596;2022-10-29T08:06:39;20.33;;;18.42;;
19521;SDS011;9905;52.126;5.596;2022-10-29T08:09:06;19.25;;;17.80;;
19521;SDS011;9905;52.126;5.596;2022-10-29T08:11:35;22.20;;;19.85;;
19521;SDS011;9905;52.126;5.596;2022-10-29T08:14:01;21.80;;;19.23;;
19521;SDS011;9905;52.126;5.596;2022-10-29T08:16:28;21.67;;;19.38;;
19521;SDS011;9905;52.126;5.596;2022-10-29T08:18:56;22.63;;;20.25;;
19521;SDS011;9905;52.126;5.596;2022-10-29T08:21:23;21.63;;;19.40;;
19521;SDS011;9905;52.126;5.596;2022-10-29T08:23:50;23.40;;;19.90;;
19521;SDS011;9905;52.126;5.596;2022-10-29T08:26:18;24.23;;;19.42;;
19521;SDS011;9905;52.126;5.596;2022-10-29T08:28:45;24.45;;;21.50;;
19521;SDS011;9905;52.126;5.596;2022-10-29T08:31:11;22.80;;;20.20;;
19521;SDS011;9905;52.126;5.596;2022-10-29T08:33:38;22.10;;;19.85;;
19521;SDS011;9905;52.126;5.596;2022-10-29T08:36:07;21.50;;;19.67;;
19521;SDS011;9905;52.126;5.596;2022-10-29T08:38:33;20.33;;;18.20;;
19521;SDS011;9905;52.126;5.596;2022-10-29T08:41:13;20.10;;;18.15;;
19521;SDS011;9905;52.126;5.596;2022-10-29T08:44:01;24.58;;;18.25;;
19521;SDS011;9905;52.126;5.596;2022-10-29T08:46:42;22.80;;;17.52;;
19521;SDS011;9905;52.126;5.596;2022-10-29T08:49:13;17.92;;;16.33;;
19521;SDS011;9905;52.126;5.596;2022-10-29T08:51:46;18.50;;;16.52;;
19521;SDS011;9905;52.126;5.596;2022-10-29T08:54:17;17.20;;;15.38;;
19521;SDS011;9905;52.126;5.596;2022-10-29T08:56:46;16.40;;;14.85;;
19521;SDS011;9905;52.126;5.596;2022-10-29T08:59:15;20.33;;;15.48;;
19521;SDS011;9905;52.126;5.596;2022-10-29T09:01:45;16.38;;;14.68;;
19521;SDS011;9905;52.126;5.596;2022-10-29T09:04:17;19.45;;;14.68;;
19521;SDS011;9905;52.126;5.596;2022-10-29T09:06:52;14.10;;;12.43;;
19521;SDS011;9905;52.126;5.596;2022-10-29T09:09:30;17.10;;;12.70;;
19521;SDS011;9905;52.126;5.596;2022-10-29T09:12:06;19.20;;;11.35;;
19521;SDS011;9905;52.126;5.596;2022-10-29T09:14:48;15.15;;;11.43;;
19521;SDS011;9905;52.126;5.596;2022-10-29T09:17:29;12.43;;;10.90;;
19521;SDS011;9905;52.126;5.596;2022-10-29T09:20:14;15.30;;;11.15;;
19521;SDS011;9905;52.126;5.596;2022-10-29T09:22:50;12.93;;;11.35;;
19521;SDS011;9905;52.126;5.596;2022-10-29T09:25:25;10.57;;;9.57;;
19521;SDS011;9905;52.126;5.596;2022-10-29T09:27:59;11.77;;;9.88;;
19521;SDS011;9905;52.126;5.596;2022-10-29T09:30:37;12.73;;;10.25;;
19521;SDS011;9905;52.126;5.596;2022-10-29T09:33:09;15.15;;;9.90;;
19521;SDS011;9905;52.126;5.596;2022-10-29T09:35:40;10.75;;;9.25;;
19521;SDS011;9905;52.126;5.596;2022-10-29T09:38:13;10.38;;;9.43;;
19521;SDS011;9905;52.126;5.596;2022-10-29T09:40:43;12.05;;;9.68;;
19521;SDS011;9905;52.126;5.596;2022-10-29T09:43:14;10.80;;;9.80;;
19521;SDS011;9905;52.126;5.596;2022-10-29T09:45:51;9.93;;;9.05;;
19521;SDS011;9905;52.126;5.596;2022-10-29T09:48:24;12.93;;;9.45;;
19521;SDS011;9905;52.126;5.596;2022-10-29T09:50:57;11.93;;;9.15;;
19521;SDS011;9905;52.126;5.596;2022-10-29T09:53:32;12.57;;;8.77;;
19521;SDS011;9905;52.126;5.596;2022-10-29T09:55:59;9.02;;;7.82;;
19521;SDS011;9905;52.126;5.596;2022-10-29T09:58:27;8.07;;;7.55;;
19521;SDS011;9905;52.126;5.596;2022-10-29T10:00:54;10.35;;;7.43;;
19521;SDS011;9905;52.126;5.596;2022-10-29T10:03:22;7.88;;;7.07;;
19521;SDS011;9905;52.126;5.596;2022-10-29T10:06:03;7.78;;;7.07;;
19521;SDS011;9905;52.126;5.596;2022-10-29T10:08:33;8.88;;;6.30;;
19521;SDS011;9905;52.126;5.596;2022-10-29T10:11:09;7.18;;;6.47;;
19521;SDS011;9905;52.126;5.596;2022-10-29T10:13:49;7.18;;;6.40;;
19521;SDS011;9905;52.126;5.596;2022-10-29T10:16:21;7.57;;;6.53;;
19521;SDS011;9905;52.126;5.596;2022-10-29T10:18:49;9.43;;;7.10;;
19521;SDS011;9905;52.126;5.596;2022-10-29T10:21:23;8.85;;;6.05;;
19521;SDS011;9905;52.126;5.596;2022-10-29T10:23:53;7.63;;;5.82;;
19521;SDS011;9905;52.126;5.596;2022-10-29T10:26:28;6.00;;;5.40;;
19521;SDS011;9905;52.126;5.596;2022-10-29T10:29:09;8.38;;;5.13;;
19521;SDS011;9905;52.126;5.596;2022-10-29T10:31:37;6.20;;;5.03;;
19521;SDS011;9905;52.126;5.596;2022-10-29T10:34:08;5.90;;;5.40;;
19521;SDS011;9905;52.126;5.596;2022-10-29T10:36:41;8.65;;;6.40;;
19521;SDS011;9905;52.126;5.596;2022-10-29T10:39:17;7.85;;;5.25;;
19521;SDS011;9905;52.126;5.596;2022-10-29T10:41:50;5.75;;;5.25;;
19521;SDS011;9905;52.126;5.596;2022-10-29T10:44:18;9.07;;;5.05;;
19521;SDS011;9905;52.126;5.596;2022-10-29T10:46:48;5.38;;;4.97;;
19521;SDS011;9905;52.126;5.596;2022-10-29T10:49:17;9.57;;;5.55;;
19521;SDS011;9905;52.126;5.596;2022-10-29T10:51:53;6.38;;;5.50;;
19521;SDS011;9905;52.126;5.596;2022-10-29T10:54:25;10.30;;;6.10;;
19521;SDS011;9905;52.126;5.596;2022-10-29T10:56:55;5.18;;;4.60;;
19521;SDS011;9905;52.126;5.596;2022-10-29T10:59:24;7.15;;;4.85;;
19521;SDS011;9905;52.126;5.596;2022-10-29T11:01:57;5.45;;;4.95;;
19521;SDS011;9905;52.126;5.596;2022-10-29T11:04:26;9.05;;;5.85;;
19521;SDS011;9905;52.126;5.596;2022-10-29T11:06:57;7.15;;;5.15;;
19521;SDS011;9905;52.126;5.596;2022-10-29T11:09:31;10.93;;;5.22;;
19521;SDS011;9905;52.126;5.596;2022-10-29T11:12:04;5.95;;;5.35;;
19521;SDS011;9905;52.126;5.596;2022-10-29T11:14:37;8.32;;;4.97;;
19521;SDS011;9905;52.126;5.596;2022-10-29T11:17:24;7.22;;;5.38;;
19521;SDS011;9905;52.126;5.596;2022-10-29T11:19:53;7.35;;;5.97;;
19521;SDS011;9905;52.126;5.596;2022-10-29T11:22:23;6.45;;;4.78;;
19521;SDS011;9905;52.126;5.596;2022-10-29T11:24:57;4.88;;;4.47;;
19521;SDS011;9905;52.126;5.596;2022-10-29T11:27:29;6.28;;;4.78;;
19521;SDS011;9905;52.126;5.596;2022-10-29T11:30:05;6.40;;;5.75;;
19521;SDS011;9905;52.126;5.596;2022-10-29T11:32:43;8.18;;;5.50;;
19521;SDS011;9905;52.126;5.596;2022-10-29T11:35:17;6.03;;;5.43;;
19521;SDS011;9905;52.126;5.596;2022-10-29T11:37:49;7.70;;;5.47;;
19521;SDS011;9905;52.126;5.596;2022-10-29T11:40:26;8.07;;;5.93;;
19521;SDS011;9905;52.126;5.596;2022-10-29T11:42:59;5.38;;;4.97;;
19521;SDS011;9905;52.126;5.596;2022-10-29T11:45:31;5.97;;;5.53;;
19521;SDS011;9905;52.126;5.596;2022-10-29T11:48:10;7.97;;;5.38;;
19521;SDS011;9905;52.126;5.596;2022-10-29T11:50:45;6.10;;;5.53;;
19521;SDS011;9905;52.126;5.596;2022-10-29T11:53:22;6.82;;;4.43;;
19521;SDS011;9905;52.126;5.596;2022-10-29T11:56:05;6.03;;;5.40;;
19521;SDS011;9905;52.126;5.596;2022-10-29T11:58:39;6.20;;;5.57;;
19521;SDS011;9905;52.126;5.596;2022-10-29T12:01:13;6.70;;;5.95;;
19521;SDS011;9905;52.126;5.596;2022-10-29T12:03:49;6.43;;;5.47;;
19521;SDS011;9905;52.126;5.596;2022-10-29T12:06:31;8.70;;;5.03;;
19521;SDS011;9905;52.126;5.596;2022-10-29T12:09:12;10.10;;;5.40;;
19521;SDS011;9905;52.126;5.596;2022-10-29T12:11:57;10.48;;;5.78;;
19521;SDS011;9905;52.126;5.596;2022-10-29T12:14:29;7.28;;;6.03;;
19521;SDS011;9905;52.126;5.596;2022-10-29T12:17:04;7.38;;;6.20;;
19521;SDS011;9905;52.126;5.596;2022-10-29T12:19:38;12.10;;;7.90;;
19521;SDS011;9905;52.126;5.596;2022-10-29T12:22:15;7.88;;;6.20;;
19521;SDS011;9905;52.126;5.596;2022-10-29T12:24:51;8.18;;;5.70;;
19521;SDS011;9905;52.126;5.596;2022-10-29T12:27:29;6.88;;;6.20;;
19521;SDS011;9905;52.126;5.596;2022-10-29T12:30:04;9.40;;;5.95;;
19521;SDS011;9905;52.126;5.596;2022-10-29T12:32:33;10.88;;;6.75;;
19521;SDS011;9905;52.126;5.596;2022-10-29T12:35:05;12.23;;;8.10;;
19521;SDS011;9905;52.126;5.596;2022-10-29T12:37:41;18.23;;;10.40;;
19521;SDS011;9905;52.126;5.596;2022-10-29T12:40:14;10.75;;;8.75;;
19521;SDS011;9905;52.126;5.596;2022-10-29T12:42:46;20.15;;;12.25;;
19521;SDS011;9905;52.126;5.596;2022-10-29T12:45:20;16.38;;;10.25;;
19521;SDS011;9905;52.126;5.596;2022-10-29T12:48:01;9.23;;;7.10;;
19521;SDS011;9905;52.126;5.596;2022-10-29T12:50:35;8.82;;;7.03;;
19521;SDS011;9905;52.126;5.596;2022-10-29T12:53:11;9.35;;;6.65;;
19521;SDS011;9905;52.126;5.596;2022-10-29T12:55:45;12.85;;;7.38;;
19521;SDS011;9905;52.126;5.596;2022-10-29T13:04:20;10.88;;;7.88;;
19521;SDS011;9905;52.126;5.596;2022-10-29T13:06:55;7.13;;;6.03;;
19521;SDS011;9905;52.126;5.596;2022-10-29T13:09:27;7.90;;;5.95;;
19521;SDS011;9905;52.126;5.596;2022-10-29T13:11:56;9.75;;;6.03;;
19521;SDS011;9905;52.126;5.596;2022-10-29T13:14:26;9.48;;;6.60;;
19521;SDS011;9905;52.126;5.596;2022-10-29T13:16:57;7.05;;;6.28;;
19521;SDS011;9905;52.126;5.596;2022-10-29T13:19:37;7.38;;;6.70;;
19521;SDS011;9905;52.126;5.596;2022-10-29T13:22:31;12.70;;;7.00;;
19521;SDS011;9905;52.126;5.596;2022-10-29T13:34:10;8.73;;;6.50;;
19521;SDS011;9905;52.126;5.596;2022-10-29T13:37:36;7.35;;;6.40;;
19521;SDS011;9905;52.126;5.596;2022-10-29T13:43:08;6.72;;;6.13;;
19521;SDS011;9905;52.126;5.596;2022-10-29T13:45:40;7.63;;;5.93;;
19521;SDS011;9905;52.126;5.596;2022-10-29T13:48:13;9.77;;;5.95;;
19521;SDS011;9905;52.126;5.596;2022-10-29T13:50:48;5.95;;;5.45;;
19521;SDS011;9905;52.126;5.596;2022-10-29T13:53:19;7.10;;;6.30;;
19521;SDS011;9905;52.126;5.596;2022-10-29T13:55:50;8.05;;;6.25;;
19521;SDS011;9905;52.126;5.596;2022-10-29T13:58:19;9.05;;;5.97;;
19521;SDS011;9905;52.126;5.596;2022-10-29T14:00:52;9.63;;;5.80;;
19521;SDS011;9905;52.126;5.596;2022-10-29T14:03:24;7.25;;;5.03;;
19521;SDS011;9905;52.126;5.596;2022-10-29T14:05:55;5.57;;;5.20;;
19521;SDS011;9905;52.126;5.596;2022-10-29T14:08:26;6.25;;;4.93;;
19521;SDS011;9905;52.126;5.596;2022-10-29T14:11:00;6.78;;;5.13;;
19521;SDS011;9905;52.126;5.596;2022-10-29T14:13:33;6.00;;;5.18;;
19521;SDS011;9905;52.126;5.596;2022-10-29T14:16:07;5.25;;;4.85;;
19521;SDS011;9905;52.126;5.596;2022-10-29T14:18:37;5.05;;;4.65;;
19521;SDS011;9905;52.126;5.596;2022-10-29T14:21:05;5.45;;;4.95;;
19521;SDS011;9905;52.126;5.596;2022-10-29T14:23:37;5.97;;;5.50;;
19521;SDS011;9905;52.126;5.596;2022-10-29T14:26:11;6.72;;;5.00;;
19521;SDS011;9905;52.126;5.596;2022-10-29T14:28:40;5.60;;;5.05;;
19521;SDS011;9905;52.126;5.596;2022-10-29T14:31:10;6.03;;;4.82;;
19521;SDS011;9905;52.126;5.596;2022-10-29T14:33:40;6.47;;;4.95;;
19521;SDS011;9905;52.126;5.596;2022-10-29T14:36:10;5.47;;;4.97;;
19521;SDS011;9905;52.126;5.596;2022-10-29T14:38:42;5.85;;;5.30;;
19521;SDS011;9905;52.126;5.596;2022-10-29T14:41:13;5.60;;;5.13;;
19521;SDS011;9905;52.126;5.596;2022-10-29T14:43:40;7.07;;;5.20;;
19521;SDS011;9905;52.126;5.596;2022-10-29T14:46:09;9.27;;;5.75;;
19521;SDS011;9905;52.126;5.596;2022-10-29T14:48:52;5.38;;;4.88;;
19521;SDS011;9905;52.126;5.596;2022-10-29T14:51:22;5.95;;;5.20;;
19521;SDS011;9905;52.126;5.596;2022-10-29T14:53:51;6.57;;;5.45;;
19521;SDS011;9905;52.126;5.596;2022-10-29T14:56:25;5.70;;;5.05;;
19521;SDS011;9905;52.126;5.596;2022-10-29T14:58:57;5.30;;;4.80;;
19521;SDS011;9905;52.126;5.596;2022-10-29T15:01:24;5.90;;;5.40;;
19521;SDS011;9905;52.126;5.596;2022-10-29T15:03:56;6.15;;;5.53;;
19521;SDS011;9905;52.126;5.596;2022-10-29T15:06:24;6.13;;;4.75;;
19521;SDS011;9905;52.126;5.596;2022-10-29T15:08:53;6.75;;;5.43;;
19521;SDS011;9905;52.126;5.596;2022-10-29T15:11:30;9.25;;;5.00;;
19521;SDS011;9905;52.126;5.596;2022-10-29T15:13:59;5.55;;;5.07;;
19521;SDS011;9905;52.126;5.596;2022-10-29T15:16:25;7.22;;;5.45;;
19521;SDS011;9905;52.126;5.596;2022-10-29T15:18:53;8.15;;;5.10;;
19521;SDS011;9905;52.126;5.596;2022-10-29T15:21:22;7.82;;;5.63;;
19521;SDS011;9905;52.126;5.596;2022-10-29T15:23:51;5.95;;;5.45;;
19521;SDS011;9905;52.126;5.596;2022-10-29T15:26:21;6.55;;;5.75;;
19521;SDS011;9905;52.126;5.596;2022-10-29T15:28:48;6.25;;;5.47;;
19521;SDS011;9905;52.126;5.596;2022-10-29T15:31:19;6.93;;;5.32;;
19521;SDS011;9905;52.126;5.596;2022-10-29T15:33:48;8.68;;;5.13;;